sensor_id;sensor_type;location;lat;lon;timestamp;pressure;altitude;pressure_sealevel;temperature;humidity
4123;BME280;2075;51.062;6.920;2023-05-25T01:08:48;-11667.00;;;-144.48;100.00
4123;BME280;2075;51.062;6.920;2023-05-25T01:11:39;-11667.00;;;-144.48;100.00
4123;BME280;2075;51.062;6.920;2023-05-25T02:33:00;-11667.00;;;-144.48;100.00
4123;BME280;2075;51.062;6.920;2023-05-25T04:04:57;-11667.00;;;-144.48;100.00
4123;BME280;2075;51.062;6.920;2023-05-25T04:07:43;-11667.00;;;-144.48;100.00
4123;BME280;2075;51.062;6.920;2023-05-25T04:10:29;-11667.00;;;-144.48;100.00
4123;BME280;2075;51.062;6.920;2023-05-25T04:13:17;-11667.00;;;-144.48;100.00
4123;BME280;2075;51.062;6.920;2023-05-25T04:18:53;-11667.00;;;-144.48;100.00
4123;BME280;2075;51.062;6.920;2023-05-25T04:21:44;-11665.53;;;-144.48;100.00
4123;BME280;2075;51.062;6.920;2023-05-25T04:24:30;-9901.19;;;-144.48;100.00
4123;BME280;2075;51.062;6.920;2023-05-25T04:27:20;-7883.59;;;-144.48;100.00
4123;BME280;2075;51.062;6.920;2023-05-25T04:30:10;-4602.38;;;-144.48;100.00
4123;BME280;2075;51.062;6.920;2023-05-25T04:33:23;957.97;;;-144.48;100.00
4123;BME280;2075;51.062;6.920;2023-05-25T04:36:21;2729.16;;;-144.48;100.00
4123;BME280;2075;51.062;6.920;2023-05-25T04:39:10;8048.44;;;-144.48;100.00
4123;BME280;2075;51.062;6.920;2023-05-25T04:42:05;18712.78;;;-144.48;100.00
4123;BME280;2075;51.062;6.920;2023-05-25T04:44:53;23039.09;;;-144.48;100.00
4123;BME280;2075;51.062;6.920;2023-05-25T04:47:41;27626.03;;;-144.48;100.00
4123;BME280;2075;51.062;6.920;2023-05-25T04:50:28;33240.88;;;-144.48;100.00
4123;BME280;2075;51.062;6.920;2023-05-25T04:53:18;43473.84;;;-144.48;100.00
4123;BME280;2075;51.062;6.920;2023-05-25T04:56:05;47832.31;;;-144.48;100.00
4123;BME280;2075;51.062;6.920;2023-05-25T04:58:52;72609.16;;;-144.48;100.00
4123;BME280;2075;51.062;6.920;2023-05-25T05:01:37;93473.38;;;-144.48;82.68
4123;BME280;2075;51.062;6.920;2023-05-25T05:04:25;92874.22;;;-144.48;48.95
4123;BME280;2075;51.062;6.920;2023-05-25T05:07:19;92439.66;;;-144.48;41.53
4123;BME280;2075;51.062;6.920;2023-05-25T05:10:06;92360.47;;;-144.48;37.15
4123;BME280;2075;51.062;6.920;2023-05-25T05:12:56;91966.56;;;-144.48;34.97
4123;BME280;2075;51.062;6.920;2023-05-25T05:15:43;91777.75;;;-144.48;32.45
4123;BME280;2075;51.062;6.920;2023-05-25T05:18:30;91856.94;;;-144.48;32.47
4123;BME280;2075;51.062;6.920;2023-05-25T05:21:19;91978.75;;;-144.48;33.95
4123;BME280;2075;51.062;6.920;2023-05-25T05:24:08;91812.25;;;-144.48;32.61
4123;BME280;2075;51.062;6.920;2023-05-25T05:26:56;91649.84;;;-144.48;32.40
4123;BME280;2075;51.062;6.920;2023-05-25T05:29:47;91452.94;;;-144.48;30.65
4123;BME280;2075;51.062;6.920;2023-05-25T05:32:34;91475.25;;;-144.48;30.98
4123;BME280;2075;51.062;6.920;2023-05-25T05:35:19;91093.63;;;-144.48;29.13
4123;BME280;2075;51.062;6.920;2023-05-25T05:38:06;90864.28;;;-144.48;28.13
4123;BME280;2075;51.062;6.920;2023-05-25T05:40:52;91323.00;;;-144.48;29.43
4123;BME280;2075;51.062;6.920;2023-05-25T05:43:40;91000.28;;;-144.48;28.55
4123;BME280;2075;51.062;6.920;2023-05-25T05:46:28;90951.56;;;-144.48;28.20
4123;BME280;2075;51.062;6.920;2023-05-25T05:49:14;90850.06;;;-144.48;27.94
4123;BME280;2075;51.062;6.920;2023-05-25T05:51:59;90724.25;;;-144.48;27.03
4123;BME280;2075;51.062;6.920;2023-05-25T05:54:45;90643.06;;;-144.48;27.01
4123;BME280;2075;51.062;6.920;2023-05-25T05:57:33;89965.25;;;-144.48;25.67
4123;BME280;2075;51.062;6.920;2023-05-25T06:00:19;90241.22;;;-144.48;25.60
4123;BME280;2075;51.062;6.920;2023-05-25T06:03:08;90860.22;;;-144.48;27.00
4123;BME280;2075;51.062;6.920;2023-05-25T06:05:55;90082.94;;;-144.48;25.69
4123;BME280;2075;51.062;6.920;2023-05-25T06:08:41;90046.41;;;-144.48;25.11
4123;BME280;2075;51.062;6.920;2023-05-25T06:11:27;89752.19;;;-144.48;24.76
4123;BME280;2075;51.062;6.920;2023-05-25T06:14:14;90066.72;;;-144.48;24.49
4123;BME280;2075;51.062;6.920;2023-05-25T06:16:59;90480.69;;;-144.48;26.51
4123;BME280;2075;51.062;6.920;2023-05-25T06:19:47;90239.19;;;-144.48;25.84
4123;BME280;2075;51.062;6.920;2023-05-25T06:22:33;89912.50;;;-144.48;24.96
4123;BME280;2075;51.062;6.920;2023-05-25T06:25:19;89636.56;;;-144.48;24.68
4123;BME280;2075;51.062;6.920;2023-05-25T06:28:05;89664.97;;;-144.48;24.45
4123;BME280;2075;51.062;6.920;2023-05-25T06:30:50;90302.09;;;-144.48;25.87
4123;BME280;2075;51.062;6.920;2023-05-25T06:33:38;90082.94;;;-144.48;24.99
4123;BME280;2075;51.062;6.920;2023-05-25T06:36:25;89806.97;;;-144.48;25.05
4123;BME280;2075;51.062;6.920;2023-05-25T06:39:11;89857.72;;;-144.48;24.92
4123;BME280;2075;51.062;6.920;2023-05-25T06:41:57;90630.88;;;-144.48;26.51
4123;BME280;2075;51.062;6.920;2023-05-25T06:44:50;89770.47;;;-144.48;24.76
4123;BME280;2075;51.062;6.920;2023-05-25T06:47:36;89411.34;;;-144.48;24.11
4123;BME280;2075;51.062;6.920;2023-05-25T06:50:24;90302.09;;;-144.48;25.65
4123;BME280;2075;51.062;6.920;2023-05-25T06:53:21;90521.28;;;-144.48;26.50
4123;BME280;2075;51.062;6.920;2023-05-25T06:56:06;90289.94;;;-144.48;25.70
4123;BME280;2075;51.062;6.920;2023-05-25T06:58:52;89600.03;;;-144.48;24.85
4123;BME280;2075;51.062;6.920;2023-05-25T07:01:37;88983.28;;;-144.48;23.79
4123;BME280;2075;51.062;6.920;2023-05-25T07:04:24;89251.06;;;-144.48;23.64
4123;BME280;2075;51.062;6.920;2023-05-25T07:07:20;89841.47;;;-144.48;24.32
4123;BME280;2075;51.062;6.920;2023-05-25T07:15:36;89748.16;;;-144.48;24.59
4123;BME280;2075;51.062;6.920;2023-05-25T07:18:21;89518.88;;;-144.48;24.81
4123;BME280;2075;51.062;6.920;2023-05-25T07:21:07;88758.13;;;-144.48;23.13
4123;BME280;2075;51.062;6.920;2023-05-25T07:24:05;88762.19;;;-144.48;22.69
4123;BME280;2075;51.062;6.920;2023-05-25T07:27:02;88622.22;;;-144.48;23.23
4123;BME280;2075;51.062;6.920;2023-05-25T07:35:15;88557.31;;;-144.48;23.07
4123;BME280;2075;51.062;6.920;2023-05-25T07:38:02;88391.00;;;-144.48;22.63
4123;BME280;2075;51.062;6.920;2023-05-25T07:40:48;88691.19;;;-144.48;22.70
4123;BME280;2075;51.062;6.920;2023-05-25T07:43:40;89102.97;;;-144.48;23.23
4123;BME280;2075;51.062;6.920;2023-05-25T07:46:27;89062.41;;;-144.48;23.41
4123;BME280;2075;51.062;6.920;2023-05-25T07:49:13;89947.00;;;-144.48;24.76
4123;BME280;2075;51.062;6.920;2023-05-25T07:52:01;91120.03;;;-144.48;27.68
4123;BME280;2075;51.062;6.920;2023-05-25T07:54:49;91379.84;;;-144.48;28.99
4123;BME280;2075;51.062;6.920;2023-05-25T07:57:53;92210.22;;;-144.48;33.79
4123;BME280;2075;51.062;6.920;2023-05-25T08:00:42;91887.38;;;-144.48;33.39
4123;BME280;2075;51.062;6.920;2023-05-25T08:03:29;91485.41;;;-144.48;30.99
4123;BME280;2075;51.062;6.920;2023-05-25T08:06:15;90054.53;;;-144.48;26.22
4123;BME280;2075;51.062;6.920;2023-05-25T08:09:03;89157.75;;;-144.48;24.00
4123;BME280;2075;51.062;6.920;2023-05-25T08:11:50;89506.69;;;-144.48;23.96
4123;BME280;2075;51.062;6.920;2023-05-25T08:14:39;89896.25;;;-144.48;24.61
4123;BME280;2075;51.062;6.920;2023-05-25T08:17:25;91296.63;;;-144.48;27.78
4123;BME280;2075;51.062;6.920;2023-05-25T08:20:11;92319.84;;;-144.48;32.89
4123;BME280;2075;51.062;6.920;2023-05-25T08:22:56;92520.88;;;-144.48;34.93
4123;BME280;2075;51.062;6.920;2023-05-25T08:25:44;92825.50;;;-144.48;37.34
4123;BME280;2075;51.062;6.920;2023-05-25T08:28:29;93014.38;;;-144.48;39.58
4123;BME280;2075;51.062;6.920;2023-05-25T08:31:15;92872.19;;;-144.48;39.31
4123;BME280;2075;51.062;6.920;2023-05-25T08:34:01;91986.88;;;-144.48;32.83
4123;BME280;2075;51.062;6.920;2023-05-25T08:36:46;90754.69;;;-144.48;27.31
4123;BME280;2075;51.062;6.920;2023-05-25T08:39:32;90549.69;;;-144.48;26.90
4123;BME280;2075;51.062;6.920;2023-05-25T08:42:19;90651.16;;;-144.48;26.63
4123;BME280;2075;51.062;6.920;2023-05-25T08:45:05;90460.41;;;-144.48;26.21
4123;BME280;2075;51.062;6.920;2023-05-25T08:47:53;90949.53;;;-144.48;26.65
4123;BME280;2075;51.062;6.920;2023-05-25T08:50:42;91440.75;;;-144.48;29.09
4123;BME280;2075;51.062;6.920;2023-05-25T08:53:34;91363.63;;;-144.48;29.05
4123;BME280;2075;51.062;6.920;2023-05-25T08:56:20;91201.22;;;-144.48;27.71
4123;BME280;2075;51.062;6.920;2023-05-25T08:59:17;90939.38;;;-144.48;27.48
4123;BME280;2075;51.062;6.920;2023-05-25T09:02:15;91771.66;;;-144.48;30.16
4123;BME280;2075;51.062;6.920;2023-05-25T09:05:07;91702.63;;;-144.48;30.12
4123;BME280;2075;51.062;6.920;2023-05-25T09:07:52;92161.47;;;-144.48;32.36
4123;BME280;2075;51.062;6.920;2023-05-25T09:10:39;92689.44;;;-144.48;35.88
4123;BME280;2075;51.062;6.920;2023-05-25T09:13:25;92738.16;;;-144.48;37.80
4123;BME280;2075;51.062;6.920;2023-05-25T09:16:12;92860.00;;;-144.48;40.11
4123;BME280;2075;51.062;6.920;2023-05-25T09:18:57;93002.19;;;-144.48;41.66
4123;BME280;2075;51.062;6.920;2023-05-25T09:21:43;93103.72;;;-144.48;44.29
4123;BME280;2075;51.062;6.920;2023-05-25T09:24:29;93032.63;;;-144.48;43.88
4123;BME280;2075;51.062;6.920;2023-05-25T09:27:16;93006.25;;;-144.48;44.44
4123;BME280;2075;51.062;6.920;2023-05-25T09:30:04;93146.38;;;-144.48;44.17
4123;BME280;2075;51.062;6.920;2023-05-25T09:32:51;92969.69;;;-144.48;43.59
4123;BME280;2075;51.062;6.920;2023-05-25T09:35:37;92967.66;;;-144.48;43.27
4123;BME280;2075;51.062;6.920;2023-05-25T09:38:22;92941.25;;;-144.48;43.43
4123;BME280;2075;51.062;6.920;2023-05-25T09:41:08;93012.34;;;-144.48;44.90
4123;BME280;2075;51.062;6.920;2023-05-25T09:43:54;93063.09;;;-144.48;45.77
4123;BME280;2075;51.062;6.920;2023-05-25T09:46:39;93105.75;;;-144.48;45.49
4123;BME280;2075;51.062;6.920;2023-05-25T09:49:27;93195.13;;;-144.48;49.91
4123;BME280;2075;51.062;6.920;2023-05-25T09:52:14;93152.47;;;-144.48;49.92
4123;BME280;2075;51.062;6.920;2023-05-25T09:55:01;93168.72;;;-144.48;50.19
4123;BME280;2075;51.062;6.920;2023-05-25T09:57:46;93126.06;;;-144.48;49.18
4123;BME280;2075;51.062;6.920;2023-05-25T10:00:36;93115.91;;;-144.48;48.24
4123;BME280;2075;51.062;6.920;2023-05-25T10:03:22;93081.38;;;-144.48;46.94
4123;BME280;2075;51.062;6.920;2023-05-25T10:06:09;93172.78;;;-144.48;48.16
4123;BME280;2075;51.062;6.920;2023-05-25T10:08:56;93130.13;;;-144.48;47.76
4123;BME280;2075;51.062;6.920;2023-05-25T10:11:42;93105.75;;;-144.48;47.82
4123;BME280;2075;51.062;6.920;2023-05-25T10:14:30;92998.13;;;-144.48;47.44
4123;BME280;2075;51.062;6.920;2023-05-25T10:17:21;93087.47;;;-144.48;46.32
4123;BME280;2075;51.062;6.920;2023-05-25T10:20:07;93140.28;;;-144.48;47.08
4123;BME280;2075;51.062;6.920;2023-05-25T10:22:59;93176.84;;;-144.48;49.28
4123;BME280;2075;51.062;6.920;2023-05-25T10:25:54;93083.41;;;-144.48;47.56
4123;BME280;2075;51.062;6.920;2023-05-25T10:28:45;93176.84;;;-144.48;49.32
4123;BME280;2075;51.062;6.920;2023-05-25T10:31:34;93199.19;;;-144.48;50.61
4123;BME280;2075;51.062;6.920;2023-05-25T10:34:20;93134.19;;;-144.48;48.32
4123;BME280;2075;51.062;6.920;2023-05-25T10:37:06;93193.09;;;-144.48;48.93
4123;BME280;2075;51.062;6.920;2023-05-25T10:39:56;93128.09;;;-144.48;47.82
4123;BME280;2075;51.062;6.920;2023-05-25T10:42:42;93128.09;;;-144.48;47.92
4123;BME280;2075;51.062;6.920;2023-05-25T10:45:29;93176.84;;;-144.48;47.50
4123;BME280;2075;51.062;6.920;2023-05-25T10:48:15;93061.06;;;-144.48;46.87
4123;BME280;2075;51.062;6.920;2023-05-25T10:51:00;93109.81;;;-144.48;47.78
4123;BME280;2075;51.062;6.920;2023-05-25T10:53:46;93146.38;;;-144.48;47.66
4123;BME280;2075;51.062;6.920;2023-05-25T10:56:35;93260.09;;;-144.48;48.51
4123;BME280;2075;51.062;6.920;2023-05-25T10:59:25;93136.22;;;-144.48;47.29
4123;BME280;2075;51.062;6.920;2023-05-25T11:02:11;93140.28;;;-144.48;46.35
4123;BME280;2075;51.062;6.920;2023-05-25T11:05:29;93231.69;;;-144.48;48.33
4123;BME280;2075;51.062;6.920;2023-05-25T11:08:16;93107.78;;;-144.48;48.08
4123;BME280;2075;51.062;6.920;2023-05-25T11:11:04;93174.81;;;-144.48;47.61
4123;BME280;2075;51.062;6.920;2023-05-25T11:13:54;93156.53;;;-144.48;48.27
4123;BME280;2075;51.062;6.920;2023-05-25T11:16:40;93073.25;;;-144.48;46.66
4123;BME280;2075;51.062;6.920;2023-05-25T11:19:38;93211.38;;;-144.48;48.53
4123;BME280;2075;51.062;6.920;2023-05-25T11:22:30;93156.53;;;-144.48;48.98
4123;BME280;2075;51.062;6.920;2023-05-25T11:25:41;93081.38;;;-144.48;46.20
4123;BME280;2075;51.062;6.920;2023-05-25T11:28:30;93115.91;;;-144.48;45.70
4123;BME280;2075;51.062;6.920;2023-05-25T11:31:20;93059.03;;;-144.48;46.41
4123;BME280;2075;51.062;6.920;2023-05-25T11:34:06;93164.66;;;-144.48;49.00
4123;BME280;2075;51.062;6.920;2023-05-25T11:36:54;93160.59;;;-144.48;47.49
4123;BME280;2075;51.062;6.920;2023-05-25T11:39:40;93176.84;;;-144.48;48.70
4123;BME280;2075;51.062;6.920;2023-05-25T11:42:26;93142.31;;;-144.48;48.18
4123;BME280;2075;51.062;6.920;2023-05-25T11:45:13;93258.09;;;-144.48;49.95
4123;BME280;2075;51.062;6.920;2023-05-25T11:48:05;93176.84;;;-144.48;49.39
4123;BME280;2075;51.062;6.920;2023-05-25T11:51:05;93260.09;;;-144.48;50.35
4123;BME280;2075;51.062;6.920;2023-05-25T11:53:51;93211.38;;;-144.48;49.53
4123;BME280;2075;51.062;6.920;2023-05-25T11:56:36;93022.47;;;-144.48;50.02
4123;BME280;2075;51.062;6.920;2023-05-25T11:59:22;93258.09;;;-144.48;49.66
4123;BME280;2075;51.062;6.920;2023-05-25T12:02:07;93388.06;;;-144.48;50.57
4123;BME280;2075;51.062;6.920;2023-05-25T12:04:55;93343.38;;;-144.48;51.43
4123;BME280;2075;51.062;6.920;2023-05-25T12:07:42;93290.56;;;-144.48;50.31
4123;BME280;2075;51.062;6.920;2023-05-25T12:10:29;93304.78;;;-144.48;50.03
4123;BME280;2075;51.062;6.920;2023-05-25T12:13:15;93327.13;;;-144.48;51.93
4123;BME280;2075;51.062;6.920;2023-05-25T12:16:00;93308.84;;;-144.48;50.00
4123;BME280;2075;51.062;6.920;2023-05-25T12:18:46;93363.69;;;-144.48;50.29
4123;BME280;2075;51.062;6.920;2023-05-25T12:21:33;93359.63;;;-144.48;50.98
4123;BME280;2075;51.062;6.920;2023-05-25T12:24:20;93357.59;;;-144.48;52.49
4123;BME280;2075;51.062;6.920;2023-05-25T12:27:15;93298.69;;;-144.48;50.38
4123;BME280;2075;51.062;6.920;2023-05-25T12:30:01;93294.63;;;-144.48;50.17
4123;BME280;2075;51.062;6.920;2023-05-25T12:32:53;93302.75;;;-144.48;49.09
4123;BME280;2075;51.062;6.920;2023-05-25T12:35:46;93329.16;;;-144.48;49.13
4123;BME280;2075;51.062;6.920;2023-05-25T12:38:33;93300.72;;;-144.48;49.47
4123;BME280;2075;51.062;6.920;2023-05-25T12:41:18;93270.25;;;-144.48;47.66
4123;BME280;2075;51.062;6.920;2023-05-25T12:44:04;93258.09;;;-144.48;48.21
4123;BME280;2075;51.062;6.920;2023-05-25T12:46:51;93233.72;;;-144.48;48.77
4123;BME280;2075;51.062;6.920;2023-05-25T12:49:38;93256.06;;;-144.48;49.71
4123;BME280;2075;51.062;6.920;2023-05-25T12:52:31;93252.00;;;-144.48;48.95
4123;BME280;2075;51.062;6.920;2023-05-25T12:55:21;93294.63;;;-144.48;48.99
4123;BME280;2075;51.062;6.920;2023-05-25T12:58:25;93237.78;;;-144.48;48.03
4123;BME280;2075;51.062;6.920;2023-05-25T13:01:12;93209.34;;;-144.48;47.38
4123;BME280;2075;51.062;6.920;2023-05-25T13:03:57;93241.84;;;-144.48;46.31
4123;BME280;2075;51.062;6.920;2023-05-25T13:06:43;93310.88;;;-144.48;47.54
4123;BME280;2075;51.062;6.920;2023-05-25T13:09:29;93278.38;;;-144.48;47.17
4123;BME280;2075;51.062;6.920;2023-05-25T13:12:17;93321.03;;;-144.48;46.26
4123;BME280;2075;51.062;6.920;2023-05-25T13:15:03;93233.72;;;-144.48;46.61
4123;BME280;2075;51.062;6.920;2023-05-25T13:17:49;93258.09;;;-144.48;46.24
4123;BME280;2075;51.062;6.920;2023-05-25T13:20:35;93174.81;;;-144.48;46.60
4123;BME280;2075;51.062;6.920;2023-05-25T13:23:21;93160.59;;;-144.48;47.16
4123;BME280;2075;51.062;6.920;2023-05-25T13:26:07;93211.38;;;-144.48;46.00
4123;BME280;2075;51.062;6.920;2023-05-25T13:28:54;93182.94;;;-144.48;45.15
4123;BME280;2075;51.062;6.920;2023-05-25T13:31:40;93160.59;;;-144.48;45.23
4123;BME280;2075;51.062;6.920;2023-05-25T13:34:26;93136.22;;;-144.48;45.08
4123;BME280;2075;51.062;6.920;2023-05-25T13:37:11;93126.06;;;-144.48;46.35
4123;BME280;2075;51.062;6.920;2023-05-25T13:39:57;93136.22;;;-144.48;44.41
4123;BME280;2075;51.062;6.920;2023-05-25T13:42:43;93162.63;;;-144.48;44.45
4123;BME280;2075;51.062;6.920;2023-05-25T13:45:29;93105.75;;;-144.48;43.98
4123;BME280;2075;51.062;6.920;2023-05-25T13:48:15;93014.38;;;-144.48;43.78
4123;BME280;2075;51.062;6.920;2023-05-25T13:51:01;93122.00;;;-144.48;44.51
4123;BME280;2075;51.062;6.920;2023-05-25T13:53:46;93132.16;;;-144.48;46.45
4123;BME280;2075;51.062;6.920;2023-05-25T13:56:32;92953.44;;;-144.48;43.76
4123;BME280;2075;51.062;6.920;2023-05-25T13:59:17;92957.50;;;-144.48;43.70
4123;BME280;2075;51.062;6.920;2023-05-25T14:02:04;92920.94;;;-144.48;44.71
4123;BME280;2075;51.062;6.920;2023-05-25T14:04:50;93069.19;;;-144.48;45.98
4123;BME280;2075;51.062;6.920;2023-05-25T14:07:37;93067.16;;;-144.48;45.10
4123;BME280;2075;51.062;6.920;2023-05-25T14:10:24;93087.47;;;-144.48;45.40
4123;BME280;2075;51.062;6.920;2023-05-25T14:13:09;93067.16;;;-144.48;45.90
4123;BME280;2075;51.062;6.920;2023-05-25T14:15:54;93126.06;;;-144.48;44.89
4123;BME280;2075;51.062;6.920;2023-05-25T14:18:41;93130.13;;;-144.48;45.22
4123;BME280;2075;51.062;6.920;2023-05-25T14:21:27;93126.06;;;-144.48;45.47
4123;BME280;2075;51.062;6.920;2023-05-25T14:24:13;92931.09;;;-144.48;45.69
4123;BME280;2075;51.062;6.920;2023-05-25T14:26:58;93059.03;;;-144.48;45.69
4123;BME280;2075;51.062;6.920;2023-05-25T14:29:44;93107.78;;;-144.48;46.59
4123;BME280;2075;51.062;6.920;2023-05-25T14:32:30;93172.78;;;-144.48;44.97
4123;BME280;2075;51.062;6.920;2023-05-25T14:35:17;93219.50;;;-144.48;45.60
4123;BME280;2075;51.062;6.920;2023-05-25T14:38:02;93221.53;;;-144.48;46.06
4123;BME280;2075;51.062;6.920;2023-05-25T14:40:48;93217.47;;;-144.48;47.56
4123;BME280;2075;51.062;6.920;2023-05-25T14:43:33;93215.44;;;-144.48;46.29
4123;BME280;2075;51.062;6.920;2023-05-25T14:46:19;93229.66;;;-144.48;45.75
4123;BME280;2075;51.062;6.920;2023-05-25T14:49:04;93274.34;;;-144.48;46.32
4123;BME280;2075;51.062;6.920;2023-05-25T14:51:51;93219.50;;;-144.48;46.40
4123;BME280;2075;51.062;6.920;2023-05-25T14:54:37;93231.69;;;-144.48;46.29
4123;BME280;2075;51.062;6.920;2023-05-25T14:57:27;93243.88;;;-144.48;47.38
4123;BME280;2075;51.062;6.920;2023-05-25T15:00:13;93241.84;;;-144.48;48.06
4123;BME280;2075;51.062;6.920;2023-05-25T15:02:59;93233.72;;;-144.48;48.20
4123;BME280;2075;51.062;6.920;2023-05-25T15:05:44;93266.22;;;-144.48;47.52
4123;BME280;2075;51.062;6.920;2023-05-25T15:08:31;93286.50;;;-144.48;47.67
4123;BME280;2075;51.062;6.920;2023-05-25T15:11:16;93225.59;;;-144.48;47.64
4123;BME280;2075;51.062;6.920;2023-05-25T15:14:01;93207.31;;;-144.48;45.89
4123;BME280;2075;51.062;6.920;2023-05-25T15:16:47;93178.88;;;-144.48;46.44
4123;BME280;2075;51.062;6.920;2023-05-25T15:19:33;93164.66;;;-144.48;46.32
4123;BME280;2075;51.062;6.920;2023-05-25T15:22:18;93203.25;;;-144.48;46.58
4123;BME280;2075;51.062;6.920;2023-05-25T15:25:06;93197.16;;;-144.48;46.30
4123;BME280;2075;51.062;6.920;2023-05-25T15:27:51;93197.16;;;-144.48;45.90
4123;BME280;2075;51.062;6.920;2023-05-25T15:30:37;93182.94;;;-144.48;46.08
4123;BME280;2075;51.062;6.920;2023-05-25T15:33:22;93225.59;;;-144.48;46.77
4123;BME280;2075;51.062;6.920;2023-05-25T15:36:08;93199.19;;;-144.48;46.29
4123;BME280;2075;51.062;6.920;2023-05-25T15:38:53;93219.50;;;-144.48;45.88
4123;BME280;2075;51.062;6.920;2023-05-25T15:41:40;93199.19;;;-144.48;46.67
4123;BME280;2075;51.062;6.920;2023-05-25T15:44:26;93241.84;;;-144.48;46.22
4123;BME280;2075;51.062;6.920;2023-05-25T15:47:12;93201.22;;;-144.48;47.19
4123;BME280;2075;51.062;6.920;2023-05-25T15:49:59;93247.94;;;-144.48;46.74
4123;BME280;2075;51.062;6.920;2023-05-25T15:52:44;93219.50;;;-144.48;46.75
4123;BME280;2075;51.062;6.920;2023-05-25T15:55:30;93274.34;;;-144.48;46.43
4123;BME280;2075;51.062;6.920;2023-05-25T15:58:17;93276.38;;;-144.48;46.69
4123;BME280;2075;51.062;6.920;2023-05-25T16:01:02;93266.22;;;-144.48;46.82
4123;BME280;2075;51.062;6.920;2023-05-25T16:03:48;93241.84;;;-144.48;46.98
4123;BME280;2075;51.062;6.920;2023-05-25T16:06:34;93233.72;;;-144.48;47.68
4123;BME280;2075;51.062;6.920;2023-05-25T16:09:19;93237.78;;;-144.48;45.97
4123;BME280;2075;51.062;6.920;2023-05-25T16:12:05;93284.50;;;-144.48;46.83
4123;BME280;2075;51.062;6.920;2023-05-25T16:14:52;93229.66;;;-144.48;46.20
4123;BME280;2075;51.062;6.920;2023-05-25T16:17:38;93225.59;;;-144.48;46.58
4123;BME280;2075;51.062;6.920;2023-05-25T16:20:23;93264.19;;;-144.48;46.82
4123;BME280;2075;51.062;6.920;2023-05-25T16:23:09;93256.06;;;-144.48;46.49
4123;BME280;2075;51.062;6.920;2023-05-25T16:25:54;93278.38;;;-144.48;46.06
4123;BME280;2075;51.062;6.920;2023-05-25T16:28:40;93302.75;;;-144.48;46.61
4123;BME280;2075;51.062;6.920;2023-05-25T16:31:26;93280.41;;;-144.48;46.66
4123;BME280;2075;51.062;6.920;2023-05-25T16:34:12;93272.28;;;-144.48;46.72
4123;BME280;2075;51.062;6.920;2023-05-25T16:36:58;93258.09;;;-144.48;46.51
4123;BME280;2075;51.062;6.920;2023-05-25T16:39:43;93215.44;;;-144.48;46.86
4123;BME280;2075;51.062;6.920;2023-05-25T16:42:28;93249.97;;;-144.48;46.33
4123;BME280;2075;51.062;6.920;2023-05-25T16:45:14;93264.19;;;-144.48;45.75
4123;BME280;2075;51.062;6.920;2023-05-25T16:48:01;93233.72;;;-144.48;45.91
4123;BME280;2075;51.062;6.920;2023-05-25T16:50:46;93247.94;;;-144.48;45.41
4123;BME280;2075;51.062;6.920;2023-05-25T16:53:33;93243.88;;;-144.48;45.95
4123;BME280;2075;51.062;6.920;2023-05-25T16:56:18;93229.66;;;-144.48;46.69
4123;BME280;2075;51.062;6.920;2023-05-25T16:59:04;93227.63;;;-144.48;46.12
4123;BME280;2075;51.062;6.920;2023-05-25T17:01:50;93201.22;;;-144.48;45.67
4123;BME280;2075;51.062;6.920;2023-05-25T17:04:37;93256.06;;;-144.48;46.17
4123;BME280;2075;51.062;6.920;2023-05-25T17:07:22;93256.06;;;-144.48;46.24
4123;BME280;2075;51.062;6.920;2023-05-25T17:10:08;93235.75;;;-144.48;46.18
4123;BME280;2075;51.062;6.920;2023-05-25T17:12:53;93249.97;;;-144.48;46.50
4123;BME280;2075;51.062;6.920;2023-05-25T17:15:39;93266.22;;;-144.48;46.15
4123;BME280;2075;51.062;6.920;2023-05-25T17:18:24;93274.34;;;-144.48;46.58
4123;BME280;2075;51.062;6.920;2023-05-25T17:21:12;93292.59;;;-144.48;46.62
4123;BME280;2075;51.062;6.920;2023-05-25T17:23:58;93233.72;;;-144.48;46.83
4123;BME280;2075;51.062;6.920;2023-05-25T17:26:43;93286.50;;;-144.48;46.81
4123;BME280;2075;51.062;6.920;2023-05-25T17:29:29;93260.09;;;-144.48;47.32
4123;BME280;2075;51.062;6.920;2023-05-25T17:32:14;93300.72;;;-144.48;46.87
4123;BME280;2075;51.062;6.920;2023-05-25T17:35:00;93252.00;;;-144.48;46.69
4123;BME280;2075;51.062;6.920;2023-05-25T17:37:47;93310.88;;;-144.48;46.87
4123;BME280;2075;51.062;6.920;2023-05-25T17:40:32;93327.13;;;-144.48;47.34
4123;BME280;2075;51.062;6.920;2023-05-25T17:43:17;93316.97;;;-144.48;47.64
4123;BME280;2075;51.062;6.920;2023-05-25T17:46:03;93296.66;;;-144.48;48.20
4123;BME280;2075;51.062;6.920;2023-05-25T17:48:49;93262.16;;;-144.48;48.16
4123;BME280;2075;51.062;6.920;2023-05-25T17:51:34;93325.09;;;-144.48;47.79
4123;BME280;2075;51.062;6.920;2023-05-25T17:54:22;93347.44;;;-144.48;48.03
4123;BME280;2075;51.062;6.920;2023-05-25T17:57:11;93310.88;;;-144.48;48.25
4123;BME280;2075;51.062;6.920;2023-05-25T17:59:57;93365.72;;;-144.48;48.95
4123;BME280;2075;51.062;6.920;2023-05-25T18:02:42;93361.66;;;-144.48;49.12
4123;BME280;2075;51.062;6.920;2023-05-25T18:05:28;93386.03;;;-144.48;49.28
4123;BME280;2075;51.062;6.920;2023-05-25T18:08:13;93323.06;;;-144.48;49.79
4123;BME280;2075;51.062;6.920;2023-05-25T18:11:00;93394.16;;;-144.48;50.14
4123;BME280;2075;51.062;6.920;2023-05-25T18:13:46;93479.47;;;-144.48;50.96
4123;BME280;2075;51.062;6.920;2023-05-25T18:16:31;93351.50;;;-144.48;50.29
4123;BME280;2075;51.062;6.920;2023-05-25T18:19:22;93384.00;;;-144.48;50.48
4123;BME280;2075;51.062;6.920;2023-05-25T18:22:07;93384.00;;;-144.48;51.38
4123;BME280;2075;51.062;6.920;2023-05-25T18:24:52;93379.94;;;-144.48;51.58
4123;BME280;2075;51.062;6.920;2023-05-25T18:27:39;93428.69;;;-144.48;51.43
4123;BME280;2075;51.062;6.920;2023-05-25T18:30:25;93390.09;;;-144.48;52.79
4123;BME280;2075;51.062;6.920;2023-05-25T18:33:10;93459.16;;;-144.48;53.27
4123;BME280;2075;51.062;6.920;2023-05-25T18:35:56;93416.50;;;-144.48;52.98
4123;BME280;2075;51.062;6.920;2023-05-25T18:38:41;93384.00;;;-144.48;53.17
4123;BME280;2075;51.062;6.920;2023-05-25T18:41:27;93471.34;;;-144.48;53.46
4123;BME280;2075;51.062;6.920;2023-05-25T18:44:13;93461.19;;;-144.48;53.22
4123;BME280;2075;51.062;6.920;2023-05-25T18:46:58;93461.19;;;-144.48;53.89
4123;BME280;2075;51.062;6.920;2023-05-25T18:49:44;93473.38;;;-144.48;54.64
4123;BME280;2075;51.062;6.920;2023-05-25T18:52:30;93483.53;;;-144.48;55.14
4123;BME280;2075;51.062;6.920;2023-05-25T18:55:16;93499.78;;;-144.48;56.36